createdAt,value
2022-11-05T00:02:01.137Z,13.55
2022-11-05T00:04:47.115Z,15.82
2022-11-05T00:07:37.198Z,12.73
2022-11-05T00:10:06.534Z,14.35
2022-11-05T00:12:52.808Z,13.90
2022-11-05T00:15:38.831Z,12.35
2022-11-05T00:18:06.065Z,17.35
2022-11-05T00:20:33.268Z,11.98
2022-11-05T00:23:22.688Z,20.23
2022-11-05T00:25:55.824Z,17.52
2022-11-05T00:28:23.166Z,17.92
2022-11-05T00:30:50.287Z,13.77
2022-11-05T00:33:17.510Z,14.70
2022-11-05T00:35:44.694Z,18.52
2022-11-05T00:38:12.009Z,14.73
2022-11-05T00:40:39.378Z,13.82
2022-11-05T00:43:24.987Z,16.48
2022-11-05T00:45:52.164Z,14.63
2022-11-05T00:48:37.751Z,23.17
2022-11-05T00:51:05.055Z,10.63
2022-11-05T00:53:32.445Z,24.17
2022-11-05T00:56:00.573Z,11.07
2022-11-05T00:58:29.151Z,9.85
2022-11-05T01:01:00.274Z,14.18
2022-11-05T01:03:29.027Z,9.60
2022-11-05T01:06:00.585Z,16.00
2022-11-05T01:08:28.351Z,11.35
2022-11-05T01:10:57.116Z,19.38
2022-11-05T01:13:29.534Z,8.50
2022-11-05T01:15:57.176Z,19.25
2022-11-05T01:18:25.367Z,10.38
2022-11-05T01:20:52.529Z,16.48
2022-11-05T01:23:19.893Z,11.18
2022-11-05T01:25:47.511Z,14.45
2022-11-05T01:28:14.686Z,17.58
2022-11-05T01:30:42.114Z,12.82
2022-11-05T01:33:09.485Z,17.52
2022-11-05T01:35:36.969Z,12.80
2022-11-05T01:38:04.165Z,10.82
2022-11-05T01:40:31.364Z,12.80
2022-11-05T01:42:58.485Z,15.20
2022-11-05T01:45:27.803Z,10.27
2022-11-05T01:48:30.518Z,17.42
2022-11-05T01:50:59.672Z,11.07
2022-11-05T01:53:32.581Z,9.80
2022-11-05T01:56:03.368Z,11.77
2022-11-05T01:58:33.987Z,9.88
2022-11-05T02:01:01.210Z,11.18
2022-11-05T02:03:29.578Z,12.98
2022-11-05T02:05:58.128Z,11.38
2022-11-05T02:08:44.233Z,11.35
2022-11-05T02:11:13.713Z,14.20
2022-11-05T02:13:41.535Z,9.57
2022-11-05T02:16:14.552Z,13.55
2022-11-05T02:18:48.978Z,14.98
2022-11-05T02:21:31.412Z,16.10
2022-11-05T02:24:04.645Z,8.77
2022-11-05T02:26:34.507Z,11.73
2022-11-05T02:29:10.552Z,15.18
2022-11-05T02:31:57.914Z,10.18
2022-11-05T02:34:34.120Z,9.77
2022-11-05T02:37:12.524Z,12.43
2022-11-05T02:39:42.761Z,12.60
2022-11-05T02:42:19.842Z,12.15
2022-11-05T02:44:46.938Z,9.88
2022-11-05T02:47:26.231Z,12.65
2022-11-05T02:50:12.123Z,12.05
2022-11-05T02:53:00.460Z,6.40
2022-11-05T02:55:27.565Z,8.75
2022-11-05T02:57:54.790Z,9.15
2022-11-05T03:00:39.754Z,9.77
2022-11-05T03:03:09.779Z,11.10
2022-11-05T03:06:06.469Z,9.75
2022-11-05T03:09:00.150Z,14.52
2022-11-05T03:11:29.448Z,13.00
2022-11-05T03:14:15.362Z,7.50
2022-11-05T03:16:43.832Z,7.03
2022-11-05T03:19:13.985Z,7.53
2022-11-05T03:21:41.063Z,13.35
2022-11-05T03:24:14.695Z,6.28
2022-11-05T03:26:49.973Z,11.02
2022-11-05T03:31:46.631Z,9.70
2022-11-05T03:34:15.702Z,11.60
2022-11-05T03:36:45.405Z,8.40
2022-11-05T03:39:14.634Z,12.70
2022-11-05T03:41:43.586Z,14.18
2022-11-05T03:44:12.154Z,16.92
2022-11-05T03:46:44.352Z,6.20
2022-11-05T03:49:14.747Z,8.88
2022-11-05T03:51:48.019Z,11.90
2022-11-05T03:54:15.325Z,8.48
2022-11-05T03:57:02.786Z,14.82
2022-11-05T03:59:31.276Z,5.72
2022-11-05T04:01:58.820Z,8.35
2022-11-05T04:04:26.113Z,7.80
2022-11-05T04:07:12.003Z,6.82
2022-11-05T04:09:57.924Z,9.10
2022-11-05T04:12:44.386Z,10.68
2022-11-05T04:15:11.544Z,9.48
2022-11-05T04:17:38.706Z,11.68
2022-11-05T04:20:24.904Z,8.68
2022-11-05T04:23:18.074Z,7.90
2022-11-05T04:25:45.274Z,9.75
2022-11-05T04:28:12.569Z,9.95
2022-11-05T04:30:39.775Z,6.75
2022-11-05T04:33:17.373Z,6.00
2022-11-05T04:35:44.590Z,7.78
2022-11-05T04:38:15.862Z,8.73
2022-11-05T04:40:43.547Z,9.52
2022-11-05T04:43:15.329Z,9.38
2022-11-05T04:45:43.119Z,12.23
2022-11-05T04:48:10.743Z,9.73
2022-11-05T04:50:38.138Z,9.30
2022-11-05T04:53:05.263Z,9.77
2022-11-05T04:55:32.426Z,9.40
2022-11-05T04:57:59.625Z,7.97
2022-11-05T05:00:26.984Z,9.75
2022-11-05T05:02:54.254Z,10.90
2022-11-05T05:05:22.866Z,7.07
2022-11-05T05:07:50.082Z,12.25
2022-11-05T05:10:17.329Z,12.45
2022-11-05T05:12:44.566Z,8.43
2022-11-05T05:15:11.743Z,9.20
2022-11-05T05:17:38.906Z,6.90
2022-11-05T05:20:25.183Z,5.88
2022-11-05T05:22:53.238Z,9.00
2022-11-05T05:25:20.465Z,8.73
2022-11-05T05:27:47.638Z,11.82
2022-11-05T05:30:14.759Z,8.85
2022-11-05T05:32:41.933Z,11.23
2022-11-05T05:35:09.441Z,13.18
2022-11-05T05:37:36.631Z,7.55
2022-11-05T05:40:03.847Z,11.65
2022-11-05T05:42:31.073Z,11.00
2022-11-05T05:44:58.208Z,10.38
2022-11-05T05:47:25.411Z,9.05
2022-11-05T05:49:52.652Z,12.52
2022-11-05T05:52:19.783Z,9.82
2022-11-05T05:54:46.956Z,11.55
2022-11-05T05:57:14.089Z,13.30
2022-11-05T05:59:41.266Z,8.30
2022-11-05T06:02:08.565Z,12.73
2022-11-05T06:04:35.817Z,11.32
2022-11-05T06:07:02.984Z,8.27
2022-11-05T06:09:30.347Z,12.85
2022-11-05T06:11:57.648Z,12.27
2022-11-05T06:14:24.772Z,18.27
2022-11-05T06:16:51.919Z,10.63
2022-11-05T06:19:19.034Z,16.52
2022-11-05T06:21:46.205Z,16.63
2022-11-05T06:24:13.358Z,10.90
2022-11-05T06:26:43.190Z,15.68
2022-11-05T06:29:10.713Z,11.20
2022-11-05T06:31:38.249Z,11.90
2022-11-05T06:34:05.746Z,12.30
2022-11-05T06:36:33.660Z,13.68
2022-11-05T06:39:00.913Z,16.15
2022-11-05T06:41:28.363Z,13.73
2022-11-05T06:43:55.830Z,16.67
2022-11-05T06:46:23.761Z,11.88
2022-11-05T06:48:51.338Z,16.85
2022-11-05T06:51:19.191Z,16.45
2022-11-05T06:53:46.535Z,14.50
2022-11-05T06:56:13.891Z,11.38
2022-11-05T06:58:41.022Z,15.68
2022-11-05T07:01:09.401Z,15.07
2022-11-05T07:03:37.345Z,13.07
2022-11-05T07:06:05.370Z,20.63
2022-11-05T07:08:33.147Z,7.95
2022-11-05T07:11:00.727Z,11.40
2022-11-05T07:13:27.942Z,16.92
2022-11-05T07:15:55.130Z,13.48
2022-11-05T07:18:22.285Z,13.35
2022-11-05T07:20:49.632Z,11.73
2022-11-05T07:23:17.207Z,12.13
2022-11-05T07:25:44.476Z,16.08
2022-11-05T07:28:12.034Z,14.57
2022-11-05T07:30:39.746Z,15.57
2022-11-05T07:33:06.902Z,13.05
2022-11-05T07:35:34.281Z,17.80
2022-11-05T07:38:01.413Z,15.10
2022-11-05T07:40:29.393Z,12.90
2022-11-05T07:42:58.120Z,12.18
2022-11-05T07:45:26.026Z,14.48
2022-11-05T07:48:00.673Z,16.85
2022-11-05T07:50:32.468Z,11.25
2022-11-05T07:53:25.906Z,11.63
2022-11-05T07:55:53.159Z,10.43
2022-11-05T07:58:20.302Z,15.10
2022-11-05T08:00:47.980Z,11.95
2022-11-05T08:03:19.441Z,32.15
2022-11-05T08:05:48.013Z,25.08
2022-11-05T08:08:16.607Z,14.02
2022-11-05T08:10:43.880Z,11.70
2022-11-05T08:13:11.899Z,14.63
2022-11-05T08:15:39.666Z,10.35
2022-11-05T08:18:12.059Z,12.93
2022-11-05T08:20:39.696Z,18.27
2022-11-05T08:23:06.855Z,10.10
2022-11-05T08:25:34.468Z,13.18
2022-11-05T08:28:03.006Z,13.00
2022-11-05T08:30:30.259Z,12.77
2022-11-05T08:33:01.654Z,10.30
2022-11-05T08:35:29.220Z,9.32
2022-11-05T08:37:57.640Z,11.45
2022-11-05T08:40:24.939Z,6.68
2022-11-05T08:42:52.215Z,16.50
2022-11-05T08:45:19.694Z,8.73
2022-11-05T08:47:46.882Z,11.18
2022-11-05T08:50:14.107Z,26.83
2022-11-05T08:52:41.496Z,12.68
2022-11-05T08:55:08.845Z,7.60
2022-11-05T08:57:36.023Z,8.38
2022-11-05T09:00:03.176Z,9.77
2022-11-05T09:02:30.312Z,8.05
2022-11-05T09:04:57.470Z,9.75
2022-11-05T09:07:24.937Z,10.70
2022-11-05T09:09:52.399Z,13.02
2022-11-05T09:12:19.542Z,6.35
2022-11-05T09:14:46.735Z,6.90
2022-11-05T09:17:18.397Z,6.13
2022-11-05T09:19:45.743Z,6.53
2022-11-05T09:22:13.020Z,11.88
2022-11-05T09:24:40.805Z,6.18
2022-11-05T09:27:13.170Z,8.95
2022-11-05T09:29:40.627Z,8.45
2022-11-05T09:32:08.303Z,8.15
2022-11-05T09:34:35.827Z,7.32
2022-11-05T09:37:03.009Z,7.82
2022-11-05T09:39:30.471Z,10.07
2022-11-05T09:42:00.724Z,5.88
2022-11-05T09:44:33.339Z,5.93
2022-11-05T09:47:03.415Z,11.32
2022-11-05T09:49:36.975Z,6.93
2022-11-05T09:52:04.230Z,8.48
2022-11-05T09:54:32.169Z,6.97
2022-11-05T09:57:00.639Z,4.68
2022-11-05T09:59:36.199Z,8.52
2022-11-05T10:02:05.076Z,5.32
2022-11-05T10:04:33.832Z,6.28
2022-11-05T10:07:02.443Z,6.93
2022-11-05T10:09:43.341Z,7.25
2022-11-05T10:12:17.242Z,8.98
2022-11-05T10:14:49.334Z,8.57
2022-11-05T10:17:16.505Z,5.65
2022-11-05T10:19:45.809Z,9.88
2022-11-05T10:22:16.243Z,6.47
2022-11-05T10:24:46.440Z,10.98
2022-11-05T10:27:34.126Z,7.57
2022-11-05T10:30:01.380Z,6.28
2022-11-05T10:32:28.938Z,7.55
2022-11-05T10:34:58.077Z,6.97
2022-11-05T10:37:25.386Z,5.95
2022-11-05T10:39:52.522Z,6.50
2022-11-05T10:42:28.434Z,5.72
2022-11-05T10:44:55.710Z,4.28
2022-11-05T10:47:26.275Z,6.35
2022-11-05T10:49:56.717Z,6.47
2022-11-05T10:52:27.352Z,6.63
2022-11-05T10:54:56.874Z,7.95
2022-11-05T10:57:29.084Z,8.13
2022-11-05T11:00:19.294Z,5.47
2022-11-05T11:02:47.963Z,7.63
2022-11-05T11:05:27.324Z,4.45
2022-11-05T11:08:09.483Z,6.95
2022-11-05T11:10:52.905Z,6.63
2022-11-05T11:13:21.711Z,7.50
2022-11-05T11:15:50.992Z,8.27
2022-11-05T11:18:36.003Z,6.93
2022-11-05T11:21:12.961Z,5.13
2022-11-05T11:23:41.182Z,6.40
2022-11-05T11:26:09.483Z,6.72
2022-11-05T11:28:47.566Z,5.65
2022-11-05T11:31:27.586Z,5.80
2022-11-05T11:34:05.465Z,5.75
2022-11-05T11:36:51.814Z,6.35
2022-11-05T11:39:22.982Z,8.43
2022-11-05T11:41:52.137Z,8.07
2022-11-05T11:44:23.187Z,8.25
2022-11-05T11:46:51.831Z,6.20
2022-11-05T11:49:32.854Z,6.65
2022-11-05T11:52:10.878Z,7.22
2022-11-05T11:54:38.055Z,10.90
2022-11-05T11:57:20.487Z,9.65
2022-11-05T12:00:07.771Z,11.25
2022-11-05T12:02:49.823Z,5.40
2022-11-05T12:05:36.121Z,7.45
2022-11-05T12:08:13.063Z,10.60
2022-11-05T12:10:40.347Z,4.30
2022-11-05T12:13:20.690Z,11.25
2022-11-05T12:15:55.242Z,7.05
2022-11-05T12:18:31.532Z,8.80
2022-11-05T12:21:06.204Z,6.43
2022-11-05T12:23:33.410Z,10.05
2022-11-05T12:26:03.284Z,6.18
2022-11-05T12:28:57.763Z,11.02
2022-11-05T12:31:34.084Z,5.15
2022-11-05T12:34:28.847Z,6.65
2022-11-05T12:37:03.919Z,11.68
2022-11-05T12:39:37.059Z,7.95
2022-11-05T12:42:23.750Z,11.45
2022-11-05T12:44:54.000Z,6.80
2022-11-05T12:47:27.101Z,10.45
2022-11-05T12:50:01.780Z,7.43
2022-11-05T12:52:41.258Z,6.03
2022-11-05T12:55:14.504Z,9.13
2022-11-05T12:57:43.305Z,9.75
2022-11-05T13:00:22.931Z,8.57
2022-11-05T13:03:08.832Z,7.10
2022-11-05T13:05:38.375Z,7.78
2022-11-05T13:08:25.827Z,10.63
2022-11-05T13:10:58.094Z,16.63
2022-11-05T13:13:33.284Z,4.45
2022-11-05T13:16:04.947Z,7.88
2022-11-05T13:18:45.060Z,4.68
2022-11-05T13:21:12.584Z,6.72
2022-11-05T13:23:47.228Z,8.32
2022-11-05T13:26:33.945Z,15.95
2022-11-05T13:29:07.210Z,8.23
2022-11-05T13:31:39.452Z,7.78
2022-11-05T13:34:13.798Z,8.32
2022-11-05T13:37:07.299Z,7.72
2022-11-05T13:39:37.612Z,7.88
2022-11-05T13:42:23.583Z,7.65
2022-11-05T13:44:53.708Z,17.48
2022-11-05T13:47:33.216Z,6.93
2022-11-05T13:50:18.827Z,9.52
2022-11-05T13:52:52.070Z,9.18
2022-11-05T13:55:19.295Z,12.23
2022-11-05T13:57:54.353Z,10.23
2022-11-05T14:00:23.228Z,10.63
2022-11-05T14:02:53.421Z,13.60
2022-11-05T14:05:22.690Z,11.32
2022-11-05T14:07:50.048Z,10.48
2022-11-05T14:10:21.397Z,11.15
2022-11-05T14:12:50.509Z,9.75
2022-11-05T14:15:30.537Z,11.25
2022-11-05T14:18:05.616Z,8.15
2022-11-05T14:20:32.834Z,8.82
2022-11-05T14:23:26.356Z,9.35
2022-11-05T14:25:53.530Z,10.10
2022-11-05T14:28:35.714Z,12.25
2022-11-05T14:31:03.659Z,11.20
2022-11-05T14:33:32.810Z,10.65
2022-11-05T14:36:35.469Z,10.60
2022-11-05T14:39:22.919Z,13.02
2022-11-05T14:41:52.865Z,10.25
2022-11-05T14:44:20.456Z,11.52
2022-11-05T14:46:48.728Z,10.65
2022-11-05T14:49:18.379Z,9.98
2022-11-05T14:51:47.417Z,11.88
2022-11-05T14:54:25.678Z,10.88
2022-11-05T14:56:57.649Z,8.70
2022-11-05T14:59:24.874Z,14.27
2022-11-05T15:01:54.956Z,11.13
2022-11-05T15:04:30.300Z,6.90
2022-11-05T15:07:03.834Z,12.18
2022-11-05T15:09:49.896Z,11.75
2022-11-05T15:12:32.404Z,10.85
2022-11-05T15:14:59.567Z,13.02
2022-11-05T15:17:31.326Z,14.43
2022-11-05T15:20:09.910Z,16.50
2022-11-05T15:22:45.222Z,10.52
2022-11-05T15:25:42.086Z,13.50
2022-11-05T15:28:12.270Z,12.82
2022-11-05T15:30:55.494Z,11.27
2022-11-05T15:33:23.214Z,12.38
2022-11-05T15:35:50.365Z,14.25
2022-11-05T15:38:28.423Z,16.80
2022-11-05T15:41:00.067Z,13.85
2022-11-05T15:43:27.506Z,17.92
2022-11-05T15:46:13.480Z,11.65
2022-11-05T15:48:40.859Z,12.20
2022-11-05T15:51:08.244Z,11.45
2022-11-05T15:54:16.046Z,13.70
2022-11-05T15:56:48.718Z,14.55
2022-11-05T15:59:17.620Z,14.43
2022-11-05T16:01:49.750Z,10.18
2022-11-05T16:04:19.368Z,14.88
2022-11-05T16:06:48.328Z,14.23
2022-11-05T16:09:21.334Z,14.93
2022-11-05T16:11:48.532Z,14.20
2022-11-05T16:14:20.468Z,12.77
2022-11-05T16:16:47.677Z,15.98
2022-11-05T16:19:39.574Z,22.60
2022-11-05T16:22:07.578Z,16.17
2022-11-05T16:24:34.967Z,14.63
2022-11-05T16:27:05.518Z,17.92
2022-11-05T16:29:35.868Z,18.30
2022-11-05T16:32:04.836Z,16.05
2022-11-05T16:34:42.226Z,25.55
2022-11-05T16:37:12.478Z,16.02
2022-11-05T16:39:39.798Z,20.83
2022-11-05T16:42:36.136Z,16.25
2022-11-05T16:45:03.382Z,15.45
2022-11-05T16:47:31.556Z,15.32
2022-11-05T16:49:58.822Z,16.92
2022-11-05T16:52:26.096Z,15.10
2022-11-05T16:54:53.305Z,14.25
2022-11-05T16:57:20.450Z,18.08
2022-11-05T16:59:47.635Z,10.57
2022-11-05T17:02:14.907Z,13.02
2022-11-05T17:04:42.121Z,16.00
2022-11-05T17:07:09.257Z,14.02
2022-11-05T17:09:36.417Z,16.40
2022-11-05T17:12:03.553Z,19.90
2022-11-05T17:14:30.693Z,19.05
2022-11-05T17:17:00.263Z,16.70
2022-11-05T17:19:27.466Z,15.35
2022-11-05T17:21:54.594Z,16.27
2022-11-05T17:24:21.718Z,27.63
2022-11-05T17:26:48.940Z,18.83
2022-11-05T17:29:16.170Z,18.27
2022-11-05T17:31:43.427Z,19.58
2022-11-05T17:34:11.054Z,18.80
2022-11-05T17:36:38.189Z,15.93
2022-11-05T17:39:05.375Z,16.33
2022-11-05T17:41:32.515Z,15.80
2022-11-05T17:44:00.358Z,18.17
2022-11-05T17:46:27.513Z,18.42
2022-11-05T17:48:54.666Z,17.25
2022-11-05T17:51:22.167Z,20.10
2022-11-05T17:53:49.714Z,15.52
2022-11-05T17:56:28.841Z,14.30
2022-11-05T17:59:00.801Z,13.40
2022-11-05T18:01:32.767Z,16.50
2022-11-05T18:04:05.489Z,17.65
2022-11-05T18:06:36.102Z,20.27
2022-11-05T18:09:04.162Z,15.43
2022-11-05T18:11:31.587Z,20.67
2022-11-05T18:13:59.029Z,25.90
2022-11-05T18:16:26.195Z,17.55
2022-11-05T18:18:53.384Z,16.63
2022-11-05T18:21:20.510Z,20.73
2022-11-05T18:23:47.691Z,19.10
2022-11-05T18:26:15.661Z,18.15
2022-11-05T18:28:43.193Z,17.60
2022-11-05T18:31:28.847Z,17.27
2022-11-05T18:33:57.828Z,17.70
2022-11-05T18:36:26.331Z,16.45
2022-11-05T18:38:53.964Z,19.40
2022-11-05T18:41:21.671Z,17.33
2022-11-05T18:43:49.028Z,20.80
2022-11-05T18:46:36.371Z,21.15
2022-11-05T18:49:04.135Z,16.45
2022-11-05T18:51:31.622Z,17.80
2022-11-05T18:54:00.607Z,19.63
2022-11-05T18:56:27.773Z,13.98
2022-11-05T18:59:15.078Z,17.13
2022-11-05T19:01:42.298Z,15.90
2022-11-05T19:04:10.320Z,20.00
2022-11-05T19:06:37.789Z,19.48
2022-11-05T19:09:05.919Z,17.02
2022-11-05T19:11:33.635Z,16.38
2022-11-05T19:14:01.100Z,18.48
2022-11-05T19:16:29.140Z,15.38
2022-11-05T19:18:59.339Z,14.52
2022-11-05T19:21:27.084Z,16.25
2022-11-05T19:23:54.595Z,20.20
2022-11-05T19:26:28.161Z,21.10
2022-11-05T19:28:57.433Z,15.50
2022-11-05T19:31:24.652Z,18.10
2022-11-05T19:33:52.646Z,19.42
2022-11-05T19:36:20.699Z,14.80
2022-11-05T19:38:56.338Z,18.10
2022-11-05T19:41:23.933Z,19.48
2022-11-05T19:43:51.300Z,17.65
2022-11-05T19:46:19.888Z,15.05
2022-11-05T19:48:47.251Z,18.67
2022-11-05T19:51:16.012Z,18.13
2022-11-05T19:53:43.672Z,15.70
2022-11-05T19:56:17.960Z,15.90
2022-11-05T19:58:45.786Z,20.10
2022-11-05T20:01:13.780Z,14.25
2022-11-05T20:03:41.165Z,17.75
2022-11-05T20:06:12.597Z,18.73
2022-11-05T20:08:59.731Z,15.75
2022-11-05T20:11:28.012Z,19.80
2022-11-05T20:13:55.327Z,19.80
2022-11-05T20:16:26.993Z,17.73
2022-11-05T20:18:54.151Z,18.42
2022-11-05T20:21:21.360Z,17.83
2022-11-05T20:23:48.820Z,13.00
2022-11-05T20:26:16.651Z,15.27
2022-11-05T20:28:44.247Z,15.98
2022-11-05T20:31:12.885Z,14.02
2022-11-05T20:33:40.839Z,19.73
2022-11-05T20:36:09.488Z,17.85
2022-11-05T20:38:36.662Z,17.10
2022-11-05T20:41:07.984Z,15.50
2022-11-05T20:43:35.342Z,13.23
2022-11-05T20:46:02.645Z,15.20
2022-11-05T20:48:33.513Z,13.73
2022-11-05T20:51:01.088Z,17.27
2022-11-05T20:53:28.236Z,18.83
2022-11-05T20:55:55.432Z,20.65
2022-11-05T20:58:22.637Z,15.05
2022-11-05T21:00:51.268Z,14.13
2022-11-05T21:03:19.094Z,15.40
2022-11-05T21:05:50.409Z,19.33
2022-11-05T21:08:17.543Z,15.07
2022-11-05T21:10:50.893Z,23.25
2022-11-05T21:13:18.675Z,16.60
2022-11-05T21:15:55.843Z,17.60
2022-11-05T21:18:24.439Z,16.27
2022-11-05T21:20:52.077Z,14.60
2022-11-05T21:23:19.353Z,14.90
2022-11-05T21:25:47.270Z,14.50
2022-11-05T21:28:15.779Z,16.17
2022-11-05T21:30:47.479Z,14.93
2022-11-05T21:33:15.346Z,12.75
2022-11-05T21:35:46.260Z,14.15
2022-11-05T21:38:14.669Z,17.38
2022-11-05T21:40:42.545Z,17.75
2022-11-05T21:43:09.791Z,17.13
2022-11-05T21:45:40.507Z,14.63
2022-11-05T21:48:08.328Z,16.80
2022-11-05T21:50:54.571Z,16.58
2022-11-05T21:53:40.510Z,12.63
2022-11-05T21:56:27.468Z,16.30
2022-11-05T21:59:13.678Z,16.38
2022-11-05T22:01:40.967Z,14.38
2022-11-05T22:04:08.179Z,14.43
2022-11-05T22:06:35.332Z,14.02
2022-11-05T22:09:02.522Z,18.55
2022-11-05T22:11:29.666Z,15.70
2022-11-05T22:13:56.846Z,10.88
2022-11-05T22:16:24.021Z,12.85
2022-11-05T22:18:51.175Z,11.40
2022-11-05T22:21:19.235Z,14.75
2022-11-05T22:23:46.552Z,10.68
2022-11-05T22:26:13.767Z,17.95
2022-11-05T22:28:41.045Z,10.85
2022-11-05T22:31:15.159Z,11.60
2022-11-05T22:33:42.610Z,12.55
2022-11-05T22:36:10.103Z,15.02
2022-11-05T22:38:37.247Z,13.02
2022-11-05T22:41:08.391Z,16.00
2022-11-05T22:43:35.570Z,17.48
2022-11-05T22:46:06.276Z,17.42
2022-11-05T22:48:33.637Z,13.55
2022-11-05T22:51:07.814Z,9.68
2022-11-05T22:53:35.695Z,14.40
2022-11-05T22:56:04.079Z,11.95
2022-11-05T22:58:31.656Z,17.80
2022-11-05T23:00:59.219Z,13.52
2022-11-05T23:03:26.779Z,13.20
2022-11-05T23:06:00.761Z,15.07
2022-11-05T23:08:46.950Z,10.10
2022-11-05T23:11:38.488Z,9.98
2022-11-05T23:14:06.519Z,13.85
2022-11-05T23:16:52.551Z,14.52
2022-11-05T23:19:38.673Z,10.27
2022-11-05T23:22:30.216Z,13.90
2022-11-05T23:24:57.431Z,14.02
2022-11-05T23:27:24.800Z,10.85
2022-11-05T23:29:51.978Z,11.35
2022-11-05T23:32:25.140Z,11.65
2022-11-05T23:34:56.541Z,13.30
2022-11-05T23:37:43.419Z,14.23
2022-11-05T23:40:13.936Z,10.82
2022-11-05T23:43:00.276Z,11.60
2022-11-05T23:45:46.488Z,15.23
2022-11-05T23:48:18.866Z,12.35
2022-11-05T23:50:48.451Z,14.40
2022-11-05T23:53:15.887Z,16.08
2022-11-05T23:55:43.150Z,15.85
2022-11-05T23:58:11.456Z,11.57
